Data Viewer
| City | State | Eastern Time | Source | Temp | DewPt | RH | BP | 5 Min Precip | Wind Speed | Wind Dir | 5 Min Wind Max | 5 Min Wind Max Dir |
|---|---|---|---|---|---|---|---|---|---|---|---|---|
| Old Bridge | NJ | 2026-05-01 13:04 | NCAWOS | 35 | 39 | 29.90 | 8 | W | ||||
| Old Bridge | NJ | 2026-05-02 03:04 | NCAWOS | 45 | 76 | 29.88 | 3 | SW | ||||
| Old Bridge | NJ | 2026-05-02 05:14 | NCAWOS | 46 | 87 | 29.88 | 0 | N | ||||
| Old Bridge | NJ | 2026-05-02 05:04 | NCAWOS | 46 | 87 | 29.88 | 0 | N | ||||
| Old Bridge | NJ | 2026-05-02 04:29 | NCAWOS | 46 | 87 | 29.88 | 0 | N | ||||
| Old Bridge | NJ | 2026-05-02 04:24 | NCAWOS | 46 | 87 | 29.88 | 0 | N | ||||
| Old Bridge | NJ | 2026-05-02 04:09 | NCAWOS | 45 | 82 | 29.88 | 3 | WSW | ||||
| Old Bridge | NJ | 2026-05-02 04:04 | NCAWOS | 45 | 82 | 29.88 | 0 | N | ||||
| Old Bridge | NJ | 2026-05-02 03:19 | NCAWOS | 45 | 82 | 29.88 | 3 | SSW | ||||
| Old Bridge | NJ | 2026-05-02 03:14 | NCAWOS | 45 | 82 | 29.88 | 3 | SSW | ||||
| Old Bridge | NJ | 2026-05-02 03:09 | NCAWOS | 45 | 76 | 29.88 | 3 | SW | ||||
| Old Bridge | NJ | 2026-05-02 02:24 | NCAWOS | 45 | 76 | 29.88 | 0 | N | ||||
| Old Bridge | NJ | 2026-05-02 06:04 | NCAWOS | 46 | 93 | 29.88 | 0 | N | ||||
| Old Bridge | NJ | 2026-05-02 02:14 | NCAWOS | 45 | 76 | 29.89 | 3 | WSW | ||||
| Old Bridge | NJ | 2026-05-02 02:09 | NCAWOS | 45 | 76 | 29.89 | 0 | N | ||||
| Old Bridge | NJ | 2026-05-02 02:04 | NCAWOS | 45 | 76 | 29.89 | 3 | WSW | ||||
| Old Bridge | NJ | 2026-05-02 01:24 | NCAWOS | 43 | 71 | 29.89 | 3 | WSW | ||||
| Old Bridge | NJ | 2026-05-02 01:14 | NCAWOS | 43 | 71 | 29.89 | 3 | SW | ||||
| Old Bridge | NJ | 2026-05-02 01:04 | NCAWOS | 43 | 71 | 29.89 | 3 | WSW | ||||
| Old Bridge | NJ | 2026-05-02 00:24 | NCAWOS | 39 | 62 | 29.89 | 3 | SW | ||||
| Old Bridge | NJ | 2026-05-02 00:19 | NCAWOS | 39 | 62 | 29.89 | 3 | SW | ||||
| Old Bridge | NJ | 2026-05-02 00:14 | NCAWOS | 39 | 62 | 29.89 | 3 | SW | ||||
| Old Bridge | NJ | 2026-05-02 05:24 | NCAWOS | 46 | 87 | 29.88 | 0 | N | ||||
| Old Bridge | NJ | 2026-05-02 06:09 | NCAWOS | 46 | 93 | 29.88 | 0 | N | ||||
| Old Bridge | NJ | 2026-05-02 00:04 | NCAWOS | 39 | 62 | 29.88 | 0 | N | ||||
| Old Bridge | NJ | 2026-05-02 09:24 | NCAWOS | 45 | 71 | 29.90 | 6 | NW | ||||
| Old Bridge | NJ | 2026-05-02 12:14 | NCAWOS | 43 | 59 | 29.90 | 0 | N | ||||
| Old Bridge | NJ | 2026-05-02 12:09 | NCAWOS | 43 | 62 | 29.90 | 5 | NNW | ||||
| Old Bridge | NJ | 2026-05-02 12:04 | NCAWOS | 43 | 62 | 29.90 | 5 | NW | ||||
| Old Bridge | NJ | 2026-05-02 11:14 | NCAWOS | 43 | 59 | 29.90 | 3 | NNE | ||||
| Old Bridge | NJ | 2026-05-02 11:09 | NCAWOS | 43 | 59 | 29.90 | 0 | N | ||||
| Old Bridge | NJ | 2026-05-02 11:04 | NCAWOS | 43 | 62 | 29.90 | 0 | N | ||||
| Old Bridge | NJ | 2026-05-02 10:24 | NCAWOS | 43 | 62 | 29.90 | 3 | NNW | ||||
| Old Bridge | NJ | 2026-05-02 10:09 | NCAWOS | 45 | 67 | 29.90 | 3 | N | ||||
| Old Bridge | NJ | 2026-05-02 10:04 | NCAWOS | 45 | 67 | 29.89 | 5 | NW | ||||
| Old Bridge | NJ | 2026-05-02 09:09 | NCAWOS | 45 | 71 | 29.90 | 5 | WNW | ||||
| Old Bridge | NJ | 2026-05-02 06:15 | NCAWOS | 46 | 93 | 29.88 | 0 | N | ||||
| Old Bridge | NJ | 2026-05-02 09:04 | NCAWOS | 45 | 71 | 29.91 | 6 | WNW | ||||
| Old Bridge | NJ | 2026-05-02 08:19 | NCAWOS | 46 | 82 | 29.90 | 0 | N | ||||
| Old Bridge | NJ | 2026-05-02 08:15 | NCAWOS | 46 | 82 | 29.90 | 0 | N | ||||
| Old Bridge | NJ | 2026-05-02 08:09 | NCAWOS | 46 | 82 | 29.90 | 0 | N | ||||
| Old Bridge | NJ | 2026-05-02 08:04 | NCAWOS | 46 | 82 | 29.90 | 0 | N | ||||
| Old Bridge | NJ | 2026-05-02 07:24 | NCAWOS | 48 | 94 | 29.90 | 0 | N | ||||
| Old Bridge | NJ | 2026-05-02 07:09 | NCAWOS | 48 | 94 | 29.90 | 0 | N | ||||
| Old Bridge | NJ | 2026-05-02 07:04 | NCAWOS | 48 | 100 | 29.91 | 0 | N | ||||
| Old Bridge | NJ | 2026-05-02 06:24 | NCAWOS | 46 | 93 | 29.89 | 0 | N | ||||
| Old Bridge | NJ | 2026-05-02 00:09 | NCAWOS | 39 | 62 | 29.88 | 3 | SW | ||||
| Old Bridge | NJ | 2026-05-01 23:24 | NCAWOS | 37 | 54 | 29.89 | 5 | WSW | ||||
| Old Bridge | NJ | 2026-05-01 13:09 | NCAWOS | 34 | 36 | 29.90 | 5 | N | ||||
| Old Bridge | NJ | 2026-05-01 15:19 | NCAWOS | 35 | 34 | 29.87 | 3 | NNE | ||||
| Old Bridge | NJ | 2026-05-01 17:19 | NCAWOS | 34 | 32 | 29.85 | 6 | W | ||||
| Old Bridge | NJ | 2026-05-01 17:14 | NCAWOS | 34 | 32 | 29.85 | 6 | WSW | ||||
| Old Bridge | NJ | 2026-05-01 17:09 | NCAWOS | 34 | 32 | 29.85 | 8 | SW | ||||
| Old Bridge | NJ | 2026-05-01 17:04 | NCAWOS | 36 | 32 | 29.85 | 7 | W | ||||
| Old Bridge | NJ | 2026-05-01 16:19 | NCAWOS | 35 | 34 | 29.85 | 6 | WNW | ||||
| Old Bridge | NJ | 2026-05-01 16:14 | NCAWOS | 36 | 32 | 29.85 | 8 | W | ||||
| Old Bridge | NJ | 2026-05-01 16:09 | NCAWOS | 36 | 32 | 29.85 | 9 | WSW | ||||
| Old Bridge | NJ | 2026-05-01 16:04 | NCAWOS | 35 | 34 | 29.85 | 5 | WNW | ||||
| Old Bridge | NJ | 2026-05-01 15:24 | NCAWOS | 35 | 34 | 29.86 | 0 | N | ||||
| Old Bridge | NJ | 2026-05-01 15:14 | NCAWOS | 35 | 34 | 29.87 | 6 | W | ||||
| Old Bridge | NJ | 2026-05-01 18:09 | NCAWOS | 34 | 32 | 29.84 | 3 | W | ||||
| Old Bridge | NJ | 2026-05-01 15:10 | NCAWOS | 35 | 34 | 29.87 | 7 | W | ||||
| Old Bridge | NJ | 2026-05-01 15:04 | NCAWOS | 35 | 34 | 29.87 | 5 | S | ||||
| Old Bridge | NJ | 2026-05-01 14:18 | NCAWOS | 35 | 36 | 29.89 | 6 | WNW | ||||
| Old Bridge | NJ | 2026-05-01 14:14 | NCAWOS | 35 | 36 | 29.89 | 7 | WNW | ||||
| Old Bridge | NJ | 2026-05-01 14:09 | NCAWOS | 35 | 36 | 29.89 | 6 | WNW | ||||
| Old Bridge | NJ | 2026-05-01 14:04 | NCAWOS | 35 | 34 | 29.88 | 7 | W | ||||
| Old Bridge | NJ | 2026-05-01 13:24 | NCAWOS | 35 | 39 | 29.89 | 5 | W | ||||
| Old Bridge | NJ | 2026-05-01 13:19 | NCAWOS | 34 | 36 | 29.89 | 7 | W | ||||
| Old Bridge | NJ | 2026-05-01 13:14 | NCAWOS | 35 | 36 | 29.89 | 6 | WNW | ||||
| Old Bridge | NJ | 2026-05-01 18:04 | NCAWOS | 34 | 32 | 29.85 | 3 | W | ||||
| Old Bridge | NJ | 2026-05-01 18:14 | NCAWOS | 34 | 32 | 29.84 | 7 | SW | ||||
| Old Bridge | NJ | 2026-05-01 23:19 | NCAWOS | 37 | 54 | 29.90 | 6 | WSW | ||||
| Old Bridge | NJ | 2026-05-01 21:24 | NCAWOS | 35 | 47 | 29.89 | 0 | N | ||||
| Old Bridge | NJ | 2026-05-01 23:14 | NCAWOS | 37 | 54 | 29.90 | 6 | SW | ||||
| Old Bridge | NJ | 2026-05-01 23:09 | NCAWOS | 37 | 54 | 29.89 | 5 | SW | ||||
| Old Bridge | NJ | 2026-05-01 23:05 | NCAWOS | 37 | 54 | 29.89 | 3 | SW | ||||
| Old Bridge | NJ | 2026-05-01 22:25 | NCAWOS | 39 | 58 | 29.90 | 5 | SW | ||||
| Old Bridge | NJ | 2026-05-01 22:19 | NCAWOS | 39 | 58 | 29.90 | 5 | WSW | ||||
| Old Bridge | NJ | 2026-05-01 22:14 | NCAWOS | 39 | 54 | 29.90 | 7 | SW | ||||
| Old Bridge | NJ | 2026-05-01 22:09 | NCAWOS | 39 | 54 | 29.90 | 5 | SW | ||||
| Old Bridge | NJ | 2026-05-01 22:04 | NCAWOS | 39 | 54 | 29.90 | 7 | WSW | ||||
| Old Bridge | NJ | 2026-05-01 21:29 | NCAWOS | 35 | 47 | 29.89 | 5 | SSW | ||||
| Old Bridge | NJ | 2026-05-01 21:19 | NCAWOS | 35 | 47 | 29.88 | 0 | N | ||||
| Old Bridge | NJ | 2026-05-01 18:20 | NCAWOS | 34 | 32 | 29.85 | 7 | WSW | ||||
| Old Bridge | NJ | 2026-05-01 21:14 | NCAWOS | 35 | 47 | 29.88 | 0 | N | ||||
| Old Bridge | NJ | 2026-05-01 21:09 | NCAWOS | 35 | 47 | 29.88 | 0 | N | ||||
| Old Bridge | NJ | 2026-05-01 21:04 | NCAWOS | 35 | 47 | 29.88 | 0 | N | ||||
| Old Bridge | NJ | 2026-05-01 20:29 | NCAWOS | 35 | 41 | 29.86 | 0 | N | ||||
| Old Bridge | NJ | 2026-05-01 20:04 | NCAWOS | 35 | 39 | 29.86 | 0 | N | ||||
| Old Bridge | NJ | 2026-05-01 19:24 | NCAWOS | 34 | 34 | 29.85 | 3 | SW | ||||
| Old Bridge | NJ | 2026-05-01 19:19 | NCAWOS | 34 | 34 | 29.84 | 5 | WSW | ||||
| Old Bridge | NJ | 2026-05-01 19:14 | NCAWOS | 34 | 34 | 29.85 | 0 | N | ||||
| Old Bridge | NJ | 2026-05-01 19:04 | NCAWOS | 34 | 32 | 29.85 | 3 | W | ||||
| Old Bridge | NJ | 2026-05-02 12:19 | NCAWOS | 43 | 59 | 29.90 | 5 | N |
data collection created in 0.01544713973999 (queried in 0.003796) rendered in: 0.00013399124145508

